Terminal Aerodrome Forecast
Issued by NWS Wakefield, VA

Home | Current Version | Previous Version | Text Only | Print | Product List | Glossary On
Versions: 1 2 3 4 5 6 7 8 9 10 11 12 13 14 15 16 17 18 19 20 21 22
000
FTUS41 KAKQ 301512 AAB
TAFRIC
TAF AMD
KRIC 301512Z 3015/3112 VRB03KT 4SM -RA BR BKN009 OVC015
     FM301800 10005KT 4SM BR VCSH OVC015
     FM302200 08004KT 4SM BR OVC010
     FM310200 VRB03KT 4SM BR OVC004
     FM310500 00000KT 1SM BR OVC003=

USA.gov is the U.S. government's official web portal to all federal, state and local government web resources and services.